Marlinton, WV

3:51 PM EDT on September 01, 2015 (GMT -0400)
Thomastown | | Change Station
CLOSE
Current Station
Personal Weather Station
Location: Hot Springs, VA
Elevation: 2290 ft
Nearby Weather Stations

Elev 2290 ft 38.01 °N, 79.84 °W | Updated 9 seconds ago

Overcast
Overcast
74.1 °F
Feels Like 76 °F
N
0.0
Wind Variable Wind from East
Gusts 0.0 mph

Today
High -- | Low -- °F
--% Chance of Precip.
Yesterday
High -- | Low -- °F
Precip. -- in
6:49 AM 7:50 PM
Waning Gibbous, 87% visible
Pressure 30.26 in
Visibility 10.0 miles
Clouds Mostly Cloudy 7000 ft
Mostly Cloudy 8000 ft
Overcast 9000 ft
Heat Index 76 °F
Dew Point 32 °F
Humidity 21%
Rainfall 0.00 in
Snow Depth Not available.
UV 2 out of 12
Pollen 9.70 out of 12
Air Quality Not available.
Flu Activity Not available.
METAR KHSP 011930Z AUTO 31004KT 10SM BKN070 BKN080 OVC090 21/17 A3026 RMK AO2 T02120171
Pressure 30.26 in
Visibility 10.0 miles
Clouds Mostly Cloudy 7000 ft
Mostly Cloudy 8000 ft
Overcast 9000 ft
Heat Index 76 °F
Dew Point 32 °F
Humidity 21%
Rainfall 0.00 in
Snow Depth Not available.
UV 2 out of 12
Pollen 9.70 out of 12
Air Quality Not available.
Flu Activity Not available.
METAR KHSP 011930Z AUTO 31004KT 10SM BKN070 BKN080 OVC090 21/17 A3026 RMK AO2 T02120171

10-Day Weather Forecast

×

Almanac

Astronomy

Sep. 01, 2015 Rise Set
Actual Time
Civil Twilight
Nautical Twilight
Astronomical Twilight
Moon
Length of Visible Light
Length of Day
Tomorrow will be .
, % of the Moon is Illuminated

Today's Extremes

State Highs State Lows

Community

WunderPhotos

Upload Photos

1,851,597 photos uploaded!

WunderBlogs® & News

Nearby

Air Quality

  Air Quality AQ Index Pollutant
Not available.

Snow Depth

Station Depth Elevation

Earthquake Activity

City Distance Mag. Time & Date
Minimum magnitude displayed is 2.5.

Coastal Water Temperatures

Place Temperature

Stations

Nearby Weather Stations

Station Location Temp. Windchill Dew Point Humidity Wind Precip. Elev Updated Type